createdAt,value
2018-06-23T00:00:12.325Z,100622.42
2018-06-23T00:02:42.616Z,100623.72
2018-06-23T00:05:13.028Z,100616.33
2018-06-23T00:07:43.262Z,100621.06
2018-06-23T00:10:13.290Z,100620.28
2018-06-23T00:12:43.388Z,100628.76
2018-06-23T00:15:13.351Z,100628.82
2018-06-23T00:17:43.356Z,100633.05
2018-06-23T00:20:13.311Z,100628.63
2018-06-23T00:22:43.225Z,100628.35
2018-06-23T00:25:19.583Z,100629.39
2018-06-23T00:27:50.103Z,100634.56
2018-06-23T00:30:20.032Z,100626.00
2018-06-23T00:32:49.936Z,100619.00
2018-06-23T00:35:19.931Z,100626.02
2018-06-23T00:37:50.032Z,100623.77
2018-06-23T00:40:20.184Z,100617.88
2018-06-23T00:42:50.213Z,100614.34
2018-06-23T00:45:20.424Z,100617.72
2018-06-23T00:47:50.416Z,100623.37
2018-06-23T00:50:20.415Z,100620.80
2018-06-23T00:52:50.626Z,100620.82
2018-06-23T00:55:20.853Z,100617.25
2018-06-23T00:57:50.964Z,100619.85
2018-06-23T01:00:20.900Z,100615.42
2018-06-23T01:02:50.782Z,100619.34
2018-06-23T01:05:20.782Z,100615.50
2018-06-23T01:07:50.759Z,100626.61
2018-06-23T01:10:21.096Z,100626.87
2018-06-23T01:12:50.991Z,100630.05
2018-06-23T01:15:21.355Z,100631.76
2018-06-23T01:17:51.519Z,100632.97
2018-06-23T01:20:21.946Z,100635.69
2018-06-23T01:22:51.956Z,100641.49
2018-06-23T01:25:22.399Z,100647.03
2018-06-23T01:27:52.292Z,100646.02
2018-06-23T01:30:22.281Z,100649.81
2018-06-23T01:32:53.238Z,100657.69
2018-06-23T01:35:23.295Z,100656.99
2018-06-23T01:37:53.349Z,100658.38
2018-06-23T01:40:23.217Z,100657.45
2018-06-23T01:42:53.484Z,100667.16
2018-06-23T01:45:23.796Z,100669.16
2018-06-23T01:47:53.903Z,100669.34
2018-06-23T01:50:23.743Z,100671.61
2018-06-23T01:52:54.016Z,100676.27
2018-06-23T01:55:23.865Z,100674.39
2018-06-23T01:57:53.853Z,100676.95
2018-06-23T02:00:24.081Z,100675.81
2018-06-23T02:02:54.321Z,100678.03
2018-06-23T02:05:24.272Z,100681.03
2018-06-23T02:07:54.205Z,100685.78
2018-06-23T02:10:24.467Z,100683.94
2018-06-23T02:12:54.691Z,100690.39
2018-06-23T02:15:29.795Z,100690.07
2018-06-23T02:18:04.804Z,100690.70
2018-06-23T02:20:40.084Z,100699.88
2018-06-23T02:25:20.215Z,100697.11
2018-06-23T02:27:55.306Z,100701.48
2018-06-23T02:32:31.171Z,100720.92
2018-06-23T02:35:05.558Z,100700.63
2018-06-23T02:37:37.721Z,100707.05
2018-06-23T02:40:08.469Z,100704.24
2018-06-23T02:42:38.516Z,100707.19
2018-06-23T02:45:08.620Z,100703.48
2018-06-23T02:47:38.564Z,100703.08
2018-06-23T02:50:08.644Z,100702.27
2018-06-23T02:55:07.209Z,100708.13
2018-06-23T02:57:37.297Z,100701.73
2018-06-23T03:00:07.201Z,100705.15
2018-06-23T03:02:37.272Z,100705.31
2018-06-23T03:05:07.293Z,100706.28
2018-06-23T03:07:37.337Z,100704.23
2018-06-23T03:10:07.254Z,100702.63
2018-06-23T03:12:37.609Z,100695.48
2018-06-23T03:15:07.548Z,100700.78
2018-06-23T03:17:37.720Z,100704.09
2018-06-23T03:20:07.648Z,100706.34
2018-06-23T03:22:37.767Z,100699.39
2018-06-23T03:25:07.803Z,100715.28
2018-06-23T03:27:37.714Z,100714.97
2018-06-23T03:30:08.786Z,100709.08
2018-06-23T03:32:39.062Z,100711.95
2018-06-23T03:35:09.200Z,100715.85
2018-06-23T03:37:39.252Z,100708.40
2018-06-23T03:40:09.505Z,100714.78
2018-06-23T03:42:39.528Z,100717.50
2018-06-23T03:45:09.678Z,100715.34
2018-06-23T03:47:39.638Z,100709.08
2018-06-23T03:50:09.944Z,100707.23
2018-06-23T03:52:39.941Z,100706.66
2018-06-23T03:55:09.887Z,100710.41
2018-06-23T03:57:39.925Z,100715.80
2018-06-23T04:00:09.883Z,100718.73
2018-06-23T04:02:39.906Z,100703.16
2018-06-23T04:05:10.159Z,100717.34
2018-06-23T04:07:40.569Z,100730.08
2018-06-23T04:10:10.528Z,100723.64
2018-06-23T04:12:40.491Z,100733.56
2018-06-23T04:15:10.537Z,100734.12
2018-06-23T04:17:41.057Z,100732.35
2018-06-23T04:20:11.115Z,100740.88
2018-06-23T04:22:41.025Z,100746.95
2018-06-23T04:25:11.837Z,100759.14
2018-06-23T04:27:42.365Z,100769.38
2018-06-23T04:30:12.567Z,100790.40
2018-06-23T04:32:42.452Z,100791.00
2018-06-23T04:35:12.790Z,100785.77
2018-06-23T04:37:42.668Z,100801.73
2018-06-23T04:40:12.804Z,100805.76
2018-06-23T04:42:42.683Z,100793.41
2018-06-23T04:45:13.196Z,100805.15
2018-06-23T04:47:43.077Z,100815.28
2018-06-23T04:50:13.390Z,100816.79
2018-06-23T04:52:43.267Z,100831.09
2018-06-23T04:55:13.672Z,100821.75
2018-06-23T04:57:43.875Z,100827.20
2018-06-23T05:00:13.904Z,100816.27
2018-06-23T05:02:43.824Z,100832.86
2018-06-23T05:05:13.837Z,100841.02
2018-06-23T05:07:44.157Z,100825.82
2018-06-23T05:10:14.316Z,100832.20
2018-06-23T05:12:44.795Z,100843.06
2018-06-23T05:15:14.932Z,100837.84
2018-06-23T05:17:44.826Z,100838.82
2018-06-23T05:20:15.355Z,100834.38
2018-06-23T05:22:45.350Z,100839.95
2018-06-23T05:25:15.671Z,100838.77
2018-06-23T05:27:45.637Z,100842.83
2018-06-23T05:30:15.970Z,100854.65
2018-06-23T05:32:46.203Z,100856.83
2018-06-23T05:35:16.099Z,100863.59
2018-06-23T05:37:46.106Z,100870.23
2018-06-23T05:40:16.167Z,100872.70
2018-06-23T05:42:46.619Z,100884.47
2018-06-23T05:45:16.580Z,100891.59
2018-06-23T05:47:46.681Z,100880.53
2018-06-23T05:50:16.889Z,100886.47
2018-06-23T05:52:47.548Z,100882.42
2018-06-23T05:55:17.553Z,100902.37
2018-06-23T05:57:47.618Z,100902.75
2018-06-23T06:00:17.551Z,100900.77
2018-06-23T06:02:47.488Z,100903.92
2018-06-23T06:05:17.460Z,100894.77
2018-06-23T06:07:47.372Z,100902.92
2018-06-23T06:10:17.612Z,100900.08
2018-06-23T06:12:47.540Z,100906.41
2018-06-23T06:15:17.461Z,100909.64
2018-06-23T06:17:47.331Z,100899.30
2018-06-23T06:20:17.657Z,100906.95
2018-06-23T06:22:47.964Z,100905.48
2018-06-23T06:25:19.951Z,100912.63
2018-06-23T06:27:50.257Z,100905.12
2018-06-23T06:30:20.220Z,100900.61
2018-06-23T06:32:50.064Z,100899.19
2018-06-23T06:35:19.911Z,100889.72
2018-06-23T06:37:50.532Z,100911.73
2018-06-23T06:40:20.433Z,100892.14
2018-06-23T06:42:50.752Z,100901.96
2018-06-23T06:45:20.724Z,100909.72
2018-06-23T06:47:50.840Z,100907.94
2018-06-23T06:50:22.416Z,100905.39
2018-06-23T06:52:52.321Z,100905.19
2018-06-23T06:55:22.229Z,100910.48
2018-06-23T06:57:52.332Z,100915.36
2018-06-23T07:00:22.376Z,100924.06
2018-06-23T07:02:52.685Z,100924.66
2018-06-23T07:05:22.581Z,100923.12
2018-06-23T07:07:52.604Z,100930.74
2018-06-23T07:10:24.368Z,100928.45
2018-06-23T07:12:54.264Z,100929.16
2018-06-23T07:15:24.256Z,100938.47
2018-06-23T07:17:54.206Z,100933.38
2018-06-23T07:20:24.349Z,100942.30
2018-06-23T07:22:54.679Z,100957.03
2018-06-23T07:25:25.024Z,100953.25
2018-06-23T07:27:55.441Z,100951.61
2018-06-23T07:30:25.393Z,100953.77
2018-06-23T07:32:55.532Z,100960.80
2018-06-23T07:35:25.439Z,100956.42
2018-06-23T07:37:55.458Z,100951.70
2018-06-23T07:40:25.734Z,100956.11
2018-06-23T07:42:55.658Z,100958.20
2018-06-23T07:45:25.601Z,100952.49
2018-06-23T07:47:55.536Z,100961.70
2018-06-23T07:50:26.134Z,100965.63
2018-06-23T07:52:56.676Z,100968.28
2018-06-23T07:55:26.780Z,100962.84
2018-06-23T07:57:57.014Z,100960.75
2018-06-23T08:00:27.243Z,100958.02
2018-06-23T08:02:57.113Z,100975.27
2018-06-23T08:05:27.121Z,100975.38
2018-06-23T08:07:57.069Z,100967.12
2018-06-23T08:10:27.124Z,100958.74
2018-06-23T08:12:57.002Z,100981.37
2018-06-23T08:15:26.929Z,100981.92
2018-06-23T08:17:57.009Z,100978.02
2018-06-23T08:20:27.124Z,100993.83
2018-06-23T08:22:57.820Z,100987.19
2018-06-23T08:25:28.085Z,100985.00
2018-06-23T08:27:58.568Z,100996.28
2018-06-23T08:30:28.975Z,100999.89
2018-06-23T08:32:59.477Z,100993.66
2018-06-23T08:35:29.335Z,101007.33
2018-06-23T08:38:00.080Z,101003.18
2018-06-23T08:40:30.211Z,101003.52
2018-06-23T08:43:00.543Z,101014.19
2018-06-23T08:45:30.409Z,101007.97
2018-06-23T08:48:01.269Z,101011.81
2018-06-23T08:50:31.542Z,101016.10
2018-06-23T08:53:01.948Z,100997.98
2018-06-23T08:55:32.337Z,101010.60
2018-06-23T08:58:02.377Z,101008.45
2018-06-23T09:00:32.345Z,101010.61
2018-06-23T09:03:02.397Z,101032.98
2018-06-23T09:05:32.280Z,101020.09
2018-06-23T09:08:02.222Z,101035.14
2018-06-23T09:10:32.393Z,101033.33
2018-06-23T09:13:02.706Z,101024.97
2018-06-23T09:15:32.624Z,101028.30
2018-06-23T09:18:02.861Z,101030.49
2018-06-23T09:20:32.832Z,101031.90
2018-06-23T09:23:03.005Z,101025.55
2018-06-23T09:25:33.299Z,101020.59
2018-06-23T09:28:03.407Z,101014.67
2018-06-23T09:30:33.597Z,101028.75
2018-06-23T09:33:03.452Z,101018.77
2018-06-23T09:35:33.484Z,101010.77
2018-06-23T09:38:03.792Z,101025.94
2018-06-23T09:40:33.940Z,101027.70
2018-06-23T09:43:03.993Z,101018.92
2018-06-23T09:45:34.024Z,101020.83
2018-06-23T09:48:03.962Z,101017.81
2018-06-23T09:50:33.931Z,101038.66
2018-06-23T09:53:03.869Z,101017.03
2018-06-23T09:55:34.040Z,101019.57
2018-06-23T09:58:04.407Z,101026.27
2018-06-23T10:00:34.328Z,101023.00
2018-06-23T10:03:04.594Z,101044.74
2018-06-23T10:05:34.814Z,101037.69
2018-06-23T10:08:05.235Z,101029.22
2018-06-23T10:10:35.143Z,101045.69
2018-06-23T10:13:05.194Z,101042.09
2018-06-23T10:15:35.438Z,101063.11
2018-06-23T10:18:05.513Z,101056.41
2018-06-23T10:20:35.787Z,101048.03
2018-06-23T10:23:05.852Z,101052.80
2018-06-23T10:25:35.943Z,101058.55
2018-06-23T10:28:06.733Z,101065.77
2018-06-23T10:30:36.684Z,101045.72
2018-06-23T10:33:06.728Z,101031.10
2018-06-23T10:35:36.621Z,101022.08
2018-06-23T10:38:07.285Z,101053.41
2018-06-23T10:40:37.281Z,101036.50
2018-06-23T10:43:07.251Z,101042.42
2018-06-23T10:45:37.153Z,101040.83
2018-06-23T10:48:07.119Z,101052.19
2018-06-23T10:50:36.982Z,101068.39
2018-06-23T10:53:07.276Z,101060.68
2018-06-23T10:55:37.185Z,101044.70
2018-06-23T10:58:07.440Z,101065.66
2018-06-23T11:00:37.451Z,101067.53
2018-06-23T11:03:07.877Z,101056.31
2018-06-23T11:05:37.892Z,101061.36
2018-06-23T11:08:07.776Z,101077.41
2018-06-23T11:10:37.975Z,101082.88
2018-06-23T11:13:07.832Z,101082.32
2018-06-23T11:15:38.308Z,101078.80
2018-06-23T11:18:08.365Z,101071.73
2018-06-23T11:20:39.636Z,101056.71
2018-06-23T11:23:10.156Z,101066.84
2018-06-23T11:25:40.154Z,101072.64
2018-06-23T11:28:10.169Z,101062.84
2018-06-23T11:30:40.049Z,101069.16
2018-06-23T11:33:10.008Z,101064.48
2018-06-23T11:35:39.865Z,101071.71
2018-06-23T11:38:09.908Z,101065.94
2018-06-23T11:40:40.800Z,101081.73
2018-06-23T11:43:10.765Z,101071.59
2018-06-23T11:45:40.578Z,101079.38
2018-06-23T11:48:11.081Z,101073.41
2018-06-23T11:50:41.371Z,101073.54
2018-06-23T11:53:11.384Z,101077.45
2018-06-23T11:55:41.246Z,101084.86
2018-06-23T11:58:11.127Z,101091.77
2018-06-23T12:00:41.099Z,101085.06
2018-06-23T12:03:11.108Z,101081.34
2018-06-23T12:05:41.150Z,101087.00
2018-06-23T12:08:11.077Z,101092.02
2018-06-23T12:10:41.445Z,101088.92
2018-06-23T12:13:11.334Z,101098.81
2018-06-23T12:15:41.341Z,101096.09
2018-06-23T12:18:11.711Z,101106.62
2018-06-23T12:20:41.759Z,101087.61
2018-06-23T12:23:11.910Z,101094.51
2018-06-23T12:25:41.852Z,101100.91
2018-06-23T12:28:11.746Z,101080.84
2018-06-23T12:30:41.793Z,101086.59
2018-06-23T12:33:11.998Z,101085.58
2018-06-23T12:35:42.300Z,101096.05
2018-06-23T12:38:12.352Z,101107.69
2018-06-23T12:40:42.710Z,101097.05
2018-06-23T12:43:12.697Z,101090.23
2018-06-23T12:45:42.687Z,101073.93
2018-06-23T12:48:12.661Z,101071.11
2018-06-23T12:50:42.560Z,101078.69
2018-06-23T12:53:12.444Z,101082.02
2018-06-23T12:55:42.661Z,101078.61
2018-06-23T12:58:12.592Z,101084.84
2018-06-23T13:00:43.029Z,101096.16
2018-06-23T13:03:13.007Z,101088.91
2018-06-23T13:05:42.869Z,101100.05
2018-06-23T13:08:13.560Z,101102.84
2018-06-23T13:10:43.673Z,101067.78
2018-06-23T13:13:13.994Z,101127.80
2018-06-23T13:15:44.156Z,101109.42
2018-06-23T13:18:14.321Z,101114.32
2018-06-23T13:20:44.540Z,101120.47
2018-06-23T13:23:14.670Z,101116.36
2018-06-23T13:25:44.552Z,101114.06
2018-06-23T13:28:14.737Z,101127.60
2018-06-23T13:30:44.800Z,101121.39
2018-06-23T13:33:14.796Z,101133.13
2018-06-23T13:35:44.982Z,101128.55
2018-06-23T13:38:15.233Z,101139.75
2018-06-23T13:40:45.322Z,101144.63
2018-06-23T13:43:15.319Z,101136.53
2018-06-23T13:45:45.804Z,101136.26
2018-06-23T13:48:15.953Z,101141.39
2018-06-23T13:50:46.051Z,101151.31
2018-06-23T13:53:16.144Z,101155.52
2018-06-23T13:55:46.076Z,101160.50
2018-06-23T13:58:16.027Z,101162.00
2018-06-23T14:00:45.966Z,101157.99
2018-06-23T14:03:17.052Z,101157.97
2018-06-23T14:05:46.974Z,101167.34
2018-06-23T14:08:16.908Z,101169.14
2018-06-23T14:10:46.992Z,101166.20
2018-06-23T14:13:17.632Z,101166.80
2018-06-23T14:15:47.708Z,101165.02
2018-06-23T14:18:17.784Z,101169.06
2018-06-23T14:20:49.040Z,101149.23
2018-06-23T14:23:19.464Z,101153.56
2018-06-23T14:25:49.425Z,101146.30
2018-06-23T14:28:19.549Z,101149.63
2018-06-23T14:30:49.532Z,101155.61
2018-06-23T14:33:19.550Z,101153.86
2018-06-23T14:35:49.434Z,101154.42
2018-06-23T14:38:19.827Z,101153.65
2018-06-23T14:40:49.966Z,101152.58
2018-06-23T14:43:19.901Z,101149.17
2018-06-23T14:45:49.888Z,101150.22
2018-06-23T14:48:20.128Z,101160.94
2018-06-23T14:50:50.237Z,101159.84
2018-06-23T14:53:20.269Z,101157.76
2018-06-23T14:55:50.816Z,101150.43
2018-06-23T14:58:20.800Z,101140.64
2018-06-23T15:00:50.683Z,101144.94
2018-06-23T15:03:21.212Z,101143.53
2018-06-23T15:05:51.457Z,101134.52
2018-06-23T15:08:32.672Z,101127.16
2018-06-23T15:11:13.381Z,101127.27
2018-06-23T15:13:43.070Z,101138.39
2018-06-23T15:16:13.056Z,101140.06
2018-06-23T15:18:43.601Z,101141.83
2018-06-23T15:21:14.179Z,101128.77
2018-06-23T15:23:45.098Z,101129.25
2018-06-23T15:26:15.068Z,101132.87
2018-06-23T15:28:44.980Z,101134.39
2018-06-23T15:31:14.861Z,101134.19
2018-06-23T15:33:44.740Z,101127.02
2018-06-23T15:36:14.820Z,101124.77
2018-06-23T15:38:45.130Z,101124.55
2018-06-23T15:41:15.141Z,101129.01
2018-06-23T15:43:45.457Z,101130.17
2018-06-23T15:46:15.479Z,101125.13
2018-06-23T15:48:45.833Z,101124.09
2018-06-23T15:51:15.689Z,101134.41
2018-06-23T15:53:45.681Z,101124.52
2018-06-23T15:56:15.555Z,101133.86
2018-06-23T15:58:45.538Z,101132.64
2018-06-23T16:01:15.491Z,101126.67
2018-06-23T16:03:45.399Z,101141.01
2018-06-23T16:06:15.406Z,101134.97
2018-06-23T16:08:45.371Z,101136.41
2018-06-23T16:11:15.409Z,101130.62
2018-06-23T16:13:45.360Z,101131.06
2018-06-23T16:16:15.287Z,101132.77
2018-06-23T16:18:45.256Z,101143.85
2018-06-23T16:21:15.295Z,101142.25
2018-06-23T16:23:45.610Z,101138.94
2018-06-23T16:26:16.650Z,101139.66
2018-06-23T16:28:46.580Z,101142.01
2018-06-23T16:31:16.888Z,101147.20
2018-06-23T16:33:47.231Z,101149.05
2018-06-23T16:36:17.499Z,101153.30
2018-06-23T16:38:48.468Z,101173.34
2018-06-23T16:41:18.361Z,101170.42
2018-06-23T16:43:48.380Z,101153.34
2018-06-23T16:46:18.329Z,101163.26
2018-06-23T16:48:48.296Z,101182.16
2018-06-23T16:51:18.255Z,101178.53
2018-06-23T16:53:48.351Z,101184.86
2018-06-23T16:56:18.273Z,101185.11
2018-06-23T16:58:48.243Z,101185.16
2018-06-23T17:01:18.132Z,101186.97
2018-06-23T17:03:48.088Z,101185.74
2018-06-23T17:06:17.898Z,101182.31
2018-06-23T17:08:47.848Z,101187.52
2018-06-23T17:11:17.761Z,101183.42
2018-06-23T17:13:48.076Z,101187.98
2018-06-23T17:16:18.124Z,101180.55
2018-06-23T17:18:47.979Z,101190.78
2018-06-23T17:21:17.924Z,101183.48
2018-06-23T17:23:47.971Z,101185.27
2018-06-23T17:26:17.961Z,101190.25
2018-06-23T17:28:47.871Z,101187.45
2018-06-23T17:31:17.977Z,101183.98
2018-06-23T17:33:47.945Z,101185.59
2018-06-23T17:36:17.947Z,101181.16
2018-06-23T17:38:47.949Z,101189.35
2018-06-23T17:41:17.838Z,101181.03
2018-06-23T17:43:47.751Z,101189.17
2018-06-23T17:46:17.697Z,101192.41
2018-06-23T17:48:47.609Z,101188.88
2018-06-23T17:51:17.705Z,101195.75
2018-06-23T17:53:47.905Z,101201.38
2018-06-23T17:56:17.988Z,101203.03
2018-06-23T17:58:48.052Z,101200.53
2018-06-23T18:01:18.293Z,101199.43
2018-06-23T18:03:48.439Z,101205.22
2018-06-23T18:06:18.534Z,101202.32
2018-06-23T18:08:48.457Z,101209.52
2018-06-23T18:11:18.460Z,101211.30
2018-06-23T18:13:48.426Z,101214.48
2018-06-23T18:16:18.433Z,101218.66
2018-06-23T18:18:48.418Z,101219.55
2018-06-23T18:21:18.429Z,101215.59
2018-06-23T18:23:48.645Z,101223.53
2018-06-23T18:26:18.585Z,101227.88
2018-06-23T18:28:48.533Z,101230.42
2018-06-23T18:31:18.899Z,101237.54
2018-06-23T18:33:48.859Z,101237.29
2018-06-23T18:36:18.991Z,101237.27
2018-06-23T18:38:49.246Z,101240.44
2018-06-23T18:41:19.157Z,101245.73
2018-06-23T18:43:49.011Z,101248.66
2018-06-23T18:46:18.899Z,101254.74
2018-06-23T18:48:49.876Z,101252.35
2018-06-23T18:51:20.097Z,101247.39
2018-06-23T18:53:50.105Z,101253.36
2018-06-23T18:56:20.044Z,101255.94
2018-06-23T18:58:50.243Z,101264.22
2018-06-23T19:01:20.212Z,101262.31
2018-06-23T19:03:50.131Z,101264.59
2018-06-23T19:06:20.304Z,101263.75
2018-06-23T19:08:50.511Z,101267.80
2018-06-23T19:11:20.584Z,101269.80
2018-06-23T19:13:50.599Z,101274.76
2018-06-23T19:16:20.649Z,101279.38
2018-06-23T19:18:50.671Z,101272.87
2018-06-23T19:21:20.620Z,101270.91
2018-06-23T19:23:51.027Z,101272.03
2018-06-23T19:26:21.239Z,101279.98
2018-06-23T19:28:51.407Z,101278.14
2018-06-23T19:31:21.375Z,101276.92
2018-06-23T19:33:51.290Z,101289.64
2018-06-23T19:36:21.425Z,101288.65
2018-06-23T19:38:51.400Z,101287.43
2018-06-23T19:41:25.610Z,101294.06
2018-06-23T19:43:55.638Z,101295.73
2018-06-23T19:46:25.680Z,101301.02
2018-06-23T19:48:55.622Z,101304.83
2018-06-23T19:51:25.941Z,101306.26
2018-06-23T19:53:55.949Z,101310.02
2018-06-23T19:56:25.966Z,101300.46
2018-06-23T19:58:55.862Z,101306.59
2018-06-23T20:01:26.576Z,101308.95
2018-06-23T20:03:56.481Z,101306.62
2018-06-23T20:06:26.680Z,101310.75
2018-06-23T20:08:56.569Z,101305.27
2018-06-23T20:11:26.835Z,101305.91
2018-06-23T20:13:56.824Z,101307.87
2018-06-23T20:16:26.819Z,101304.39
2018-06-23T20:18:56.785Z,101307.92
2018-06-23T20:21:26.701Z,101310.26
2018-06-23T20:23:57.867Z,101313.42
2018-06-23T20:26:27.897Z,101312.23
2018-06-23T20:28:57.830Z,101317.55
2018-06-23T20:31:27.799Z,101315.72
2018-06-23T20:33:58.061Z,101306.94
2018-06-23T20:36:28.031Z,101312.22
2018-06-23T20:38:58.051Z,101316.52
2018-06-23T20:41:28.062Z,101319.24
2018-06-23T20:43:58.461Z,101308.69
2018-06-23T20:46:28.484Z,101316.79
2018-06-23T20:48:58.387Z,101318.16
2018-06-23T20:51:28.843Z,101318.27
2018-06-23T20:53:58.699Z,101317.05
2018-06-23T20:56:28.680Z,101317.06
2018-06-23T20:58:58.512Z,101321.36
2018-06-23T21:01:28.697Z,101322.60
2018-06-23T21:03:58.604Z,101320.30
2018-06-23T21:06:28.728Z,101315.85
2018-06-23T21:08:59.316Z,101319.22
2018-06-23T21:11:29.781Z,101324.24
2018-06-23T21:13:59.892Z,101329.09
2018-06-23T21:16:29.946Z,101326.55
2018-06-23T21:18:59.957Z,101337.38
2018-06-23T21:21:29.901Z,101332.22
2018-06-23T21:24:00.090Z,101336.13
2018-06-23T21:26:30.079Z,101342.86
2018-06-23T21:29:00.132Z,101337.23
2018-06-23T21:31:30.072Z,101343.83
2018-06-23T21:33:59.963Z,101339.25
2018-06-23T21:36:29.916Z,101342.02
2018-06-23T21:39:00.144Z,101342.30
2018-06-23T21:41:30.155Z,101345.68
2018-06-23T21:44:00.207Z,101340.84
2018-06-23T21:46:30.324Z,101350.56
2018-06-23T21:49:00.712Z,101343.69
2018-06-23T21:51:31.166Z,101350.53
2018-06-23T21:54:01.281Z,101350.27
2018-06-23T21:56:31.545Z,101342.12
2018-06-23T21:59:02.164Z,101337.67
2018-06-23T22:01:32.248Z,101345.75
2018-06-23T22:04:02.281Z,101346.23
2018-06-23T22:06:32.321Z,101357.05
2018-06-23T22:09:02.294Z,101345.31
2018-06-23T22:11:32.197Z,101350.96
2018-06-23T22:14:02.104Z,101359.65
2018-06-23T22:16:32.298Z,101359.28
2018-06-23T22:19:02.319Z,101350.39
2018-06-23T22:21:32.336Z,101346.55
2018-06-23T22:24:02.935Z,101341.96
2018-06-23T22:26:33.644Z,101350.33
2018-06-23T22:29:03.733Z,101348.94
2018-06-23T22:31:33.776Z,101346.84
2018-06-23T22:34:04.046Z,101349.49
2018-06-23T22:36:34.103Z,101345.61
2018-06-23T22:39:05.456Z,101355.89
2018-06-23T22:41:35.533Z,101354.20
2018-06-23T22:44:06.311Z,101361.08
2018-06-23T22:46:36.641Z,101348.54
2018-06-23T22:49:06.669Z,101359.66
2018-06-23T22:51:36.664Z,101353.66
2018-06-23T22:54:06.785Z,101345.38
2018-06-23T22:56:37.086Z,101346.48
2018-06-23T22:59:07.379Z,101347.78
2018-06-23T23:01:37.632Z,101352.67
2018-06-23T23:04:07.593Z,101357.09
2018-06-23T23:06:37.957Z,101363.18
2018-06-23T23:09:09.849Z,101365.95
2018-06-23T23:11:39.752Z,101367.33
2018-06-23T23:14:09.884Z,101362.67
2018-06-23T23:16:39.826Z,101357.71
2018-06-23T23:19:10.006Z,101354.48
2018-06-23T23:21:40.026Z,101349.30
2018-06-23T23:24:10.073Z,101349.19
2018-06-23T23:26:40.093Z,101355.16
2018-06-23T23:29:10.018Z,101355.87
2018-06-23T23:31:39.905Z,101352.22
2018-06-23T23:34:10.117Z,101354.77
2018-06-23T23:36:40.193Z,101355.11
2018-06-23T23:39:11.256Z,101348.27
2018-06-23T23:41:41.176Z,101353.48
2018-06-23T23:44:11.127Z,101350.64
2018-06-23T23:46:41.144Z,101358.53
2018-06-23T23:49:11.074Z,101352.63
2018-06-23T23:51:41.038Z,101359.33
2018-06-23T23:54:10.922Z,101353.69
2018-06-23T23:56:40.777Z,101358.73
2018-06-23T23:59:10.749Z,101358.56
